• Join FlightAware (Why Join?)
  • Login
  • US Flag 
01:15AM EDT


 

Airport Tracker/Info


-or-


 

Live Flight TrackerFlight Track Log ✈ DAL1331 ✈ 25-Jun-2013 ✈ KBWI - KMSP

Flight Track Log - Related Links

Times and Time Zones

All times are in EDT time to prevent confusion due to time zone crossing. See the DAL1331 flight status page for this flight to view local times or setup timezone preferences in your user account.

Time Position Orientation Groundspeed Altitude Reporting Facility
EDT Latitude Longitude Course Direction KTS MPH feet Rate Location/Type
07:54PM 39.1833 -76.7833 247° West 244 281 2,900  Level Potomac TRACON
07:55PM 39.2000 -76.8667 284° West 266 306 5,800 2,880 Climbing Potomac TRACON
07:56PM 39.2000 -77.1355 270° West  Level FlightAware Approximate
07:56PM 39.2167 -76.9667 282° West 263 303 8,700  Level Potomac TRACON
07:57PM 39.1052 -77.2275 211° Southwest  Level FlightAware Approximate
07:57PM 39.2167 -77.0667 270° West 284 327 11,000  Level Potomac TRACON
07:58PM 39.0020 -77.3147 218° Southwest  Level FlightAware Approximate
07:59PM 38.9720 -77.4678 254° West  Level FlightAware Approximate
07:59PM 39.1378 -77.2294 238° Southwest 322 371 12,800  Level Washington Center
08:00PM 38.9430 -77.6209 247° West  Level FlightAware Approximate
08:00PM 39.0408 -77.3047 211° Southwest 354 407 15,500  Level Washington Center
08:01PM 38.9850 -77.4103 236° Southwest 364 419 18,400 2,160 Climbing Washington Center
08:02PM 38.9644 -77.5406 259° West 359 413 19,800 1,740 Climbing Washington Center
08:03PM 38.9456 -77.6733 260° West 378 435 21,900 1,680 Climbing Washington Center
08:04PM 38.9475 -77.7964 271° West 378 435 23,300 1,260 Climbing Washington Center
08:05PM 38.9511 -77.9378 272° West 399 459 24,500 1,140 Climbing Washington Center
08:06PM 38.9564 -78.0822 273° West 406 467 25,600 1,080 Climbing Washington Center
08:07PM 38.9594 -78.2292 272° West 406 467 26,700 660 Climbing Washington Center
08:08PM 38.9644 -78.3789 273° West 416 479 27,000 300 Climbing Washington Center
08:09PM 38.9692 -78.5311 272° West 423 487 27,400 600 Climbing Washington Center
08:10PM 38.9758 -78.6836 273° West 428 493 28,200 840 Climbing Washington Center
08:11PM 38.9797 -78.8467 272° West 440 506 29,100 840 Climbing Washington Center
08:12PM 38.9858 -79.0044 273° West 445 512 30,000 420 Climbing Washington Center
08:13PM 38.9875 -79.1622 271° West 445 512 30,000  Level Washington Center
08:14PM 38.9933 -79.3200 273° West 445 512 30,000  Level Washington Center
08:15PM 38.9967 -79.4778 272° West 445 512 30,000  Level Washington Center
08:16PM 39.0011 -79.6544 272° West 445 512 30,000  Level Washington Center
08:17PM 39.0019 -79.8094 270° West 445 512 30,000  Level Washington Center
08:18PM 39.0033 -79.9511 271° West 440 506 30,000  Level Washington Center
08:19PM 39.0078 -80.1089 272° West 445 512 30,000  Level Washington Center
08:21PM 39.0078 -80.3344 270° West 440 506 30,000  Level Indianapolis Center
08:22PM 39.0100 -80.4908 271° West 440 506 30,000  Level Indianapolis Center
08:23PM 39.0111 -80.6464 271° West 435 501 30,000  Level Indianapolis Center
08:24PM 39.0211 -80.8294 274° West 431 496 30,000  Level Indianapolis Center
08:25PM 39.0781 -80.9714 297° West 447 514 30,000  Level Indianapolis Center
08:26PM 39.1367 -81.1111 298° West 447 514 30,000  Level Indianapolis Center
08:27PM 39.1950 -81.2517 298° West 448 516 30,000  Level Indianapolis Center
08:28PM 39.2514 -81.3911 298° West 444 511 30,000  Level Indianapolis Center
08:29PM 39.3086 -81.5317 298° West 444 511 30,000  Level Indianapolis Center
08:30PM 39.3778 -81.7008 298° West 446 513 30,000  Level Indianapolis Center
08:31PM 39.4339 -81.8406 298° West 441 507 30,000  Level Indianapolis Center
08:32PM 39.4903 -81.9797 298° West 439 505 30,000  Level Indianapolis Center
08:33PM 39.5503 -82.1314 297° West 439 505 30,000  Level Indianapolis Center
08:34PM 39.6058 -82.2736 297° West 439 505 30,000  Level Indianapolis Center
08:35PM 39.6633 -82.4150 298° West 440 506 30,000  Level Indianapolis Center
08:36PM 39.7186 -82.5578 297° West 439 505 30,000  Level Indianapolis Center
08:37PM 39.7739 -82.6978 297° West 434 499 30,000  Level Indianapolis Center
08:38PM 39.8294 -82.8389 297° West 435 501 30,000 -60 Level Indianapolis Center
08:39PM 39.8847 -82.9803 297° West 435 501 29,900  Descending Indianapolis Center
08:40PM 39.9492 -83.1472 297° West 441 507 30,000  Climbing Indianapolis Center
08:41PM 40.0039 -83.2892 297° West 440 506 29,900  Descending Indianapolis Center
08:42PM 40.0581 -83.4294 297° West 436 502 30,000  Climbing Indianapolis Center
08:43PM 40.1108 -83.5714 296° West 437 503 30,000  Level Indianapolis Center
08:44PM 40.1653 -83.7136 297° West 437 503 30,000 -60 Level Indianapolis Center
08:45PM 40.2186 -83.8558 296° West 435 501 29,900  Descending Indianapolis Center
08:46PM 40.2819 -84.0211 297° West 432 497 30,000  Climbing Indianapolis Center
08:47PM 40.3536 -84.1472 307° West 428 493 30,000  Level Indianapolis Center
08:48PM 40.4281 -84.2689 309° West 423 487 30,000  Level Indianapolis Center
08:49PM 40.5014 -84.3906 308° West 422 486 30,000  Level Indianapolis Center
08:50PM 40.5744 -84.5103 309° West 417 480 30,000  Level Indianapolis Center
08:51PM 40.6456 -84.6292 308° West 413 475 30,000 -60 Level Indianapolis Center
08:52PM 40.7183 -84.7492 309° West 413 475 29,900  Descending Indianapolis Center
08:53PM 40.7903 -84.8694 308° West 414 476 30,000  Climbing Indianapolis Center
08:55PM 40.8708 -85.0064 308° West 420 483 30,000  Level Indianapolis Center
08:56PM 40.9414 -85.1247 308° West 413 475 30,000  Level Indianapolis Center
08:57PM 41.0125 -85.2428 309° West 412 474 30,000  Level Indianapolis Center
08:58PM 41.0886 -85.3558 312° West 415 478 30,000  Level Indianapolis Center
08:59PM 41.1619 -85.4719 310° West 413 475 30,000  Level Indianapolis Center
09:00PM 41.2169 -85.6050 299° West 412 474 30,000  Level Indianapolis Center
09:01PM 41.2686 -85.7419 297° West 415 478 30,000  Level Indianapolis Center
09:02PM 41.3578 -85.8789 311° West 420 483 30,000  Level Indianapolis Center
09:03PM 41.4539 -85.9725 324° Northwest 427 491 30,000  Level Indianapolis Center
09:04PM 41.5692 -86.1197 316° Northwest 429 494 30,000  Level Chicago Center
09:05PM 41.6489 -86.2375 312° West 429 494 30,000  Level Chicago Center
09:06PM 41.7361 -86.3450 317° Northwest 425 489 30,000  Level Chicago Center
09:07PM 41.8350 -86.4381 325° Northwest 432 497 30,000  Level Chicago Center
09:08PM 41.9367 -86.5319 326° Northwest 442 509 30,000  Level Chicago Center
09:09PM 42.0414 -86.6172 329° Northwest 440 506 30,000  Level Chicago Center
09:10PM 42.1653 -86.7156 330° Northwest 435 501 30,000  Level Chicago Center
09:11PM 42.2525 -86.8292 316° Northwest 439 505 30,000  Level Chicago Center
09:12PM 42.3275 -86.9514 310° West 429 494 30,000  Level Chicago Center
09:13PM 42.4006 -87.0728 309° West 421 484 30,000  Level Chicago Center
09:14PM 42.4756 -87.1961 310° West 425 489 30,000  Level Chicago Center
09:15PM 42.5647 -87.3483 309° West 433 498 30,000  Level Chicago Center
09:16PM 42.6319 -87.4606 309° West 427 491 30,000  Level Chicago Center
09:17PM 42.7181 -87.6078 309° West 426 490 30,000  Level Chicago Center
09:18PM 42.7928 -87.7347 309° West 429 494 30,000  Level Chicago Center
09:19PM 42.8681 -87.8625 309° West 430 495 30,000  Level Chicago Center
09:21PM 42.9431 -87.9889 309° West 429 494 30,000  Level Chicago Center
09:22PM 43.0167 -88.1169 308° West 427 491 30,000  Level Chicago Center
09:23PM 43.0903 -88.2439 308° West 426 490 30,000  Level Chicago Center
09:24PM 43.1653 -88.3719 309° West 428 493 30,000  Level Chicago Center
09:25PM 43.2400 -88.4983 309° West 423 487 30,000  Level Chicago Center
09:26PM 43.3156 -88.6275 309° West 426 490 30,000  Level Chicago Center
09:27PM 43.3906 -88.7567 309° West 423 487 30,000  Level Chicago Center
09:28PM 43.4769 -88.9064 309° West 425 489 30,000  Level Chicago Center
09:29PM 43.5506 -89.0342 309° West 423 487 30,000  Level Chicago Center
09:30PM 43.6236 -89.1614 308° West 422 486 30,000  Level Chicago Center
09:31PM 43.6975 -89.2900 308° West 426 490 30,000  Level Chicago Center
09:32PM 43.7569 -89.3956 308° West 421 484 30,000  Level Minneapolis Center
09:33PM 43.8294 -89.5233 308° West 421 484 30,000  Level Minneapolis Center
09:34PM 43.9128 -89.6733 308° West 420 483 30,000  Level Minneapolis Center
09:35PM 43.9861 -89.8006 309° West 422 486 30,000  Level Minneapolis Center
09:36PM 44.0564 -89.9311 307° West 422 486 30,000  Level Minneapolis Center
09:37PM 44.1292 -90.0611 308° West 425 489 30,000  Level Minneapolis Center
09:38PM 44.2006 -90.1919 307° West 424 488 30,000 -540 Level Minneapolis Center
09:39PM 44.2742 -90.3222 308° West 427 491 28,900 -1,140 Descending Minneapolis Center
09:40PM 44.3597 -90.4781 308° West 432 497 27,700 -1,140 Descending Minneapolis Center
09:41PM 44.4328 -90.6111 308° West 430 495 26,600 -1,020 Descending Minneapolis Center
09:42PM 44.4992 -90.7511 304° West 431 496 25,700 -900 Descending Minneapolis Center
09:43PM 44.5547 -90.8981 298° West 427 491 24,800 -840 Descending Minneapolis Center
09:44PM 44.6092 -91.0567 296° West 421 484 24,000 -420 Descending Minneapolis Center
09:45PM 44.6603 -91.2000 297° West 416 479 24,000  Level Minneapolis Center
09:46PM 44.7150 -91.3411 299° West 413 475 24,000 -300 Level Minneapolis Center
09:47PM 44.7672 -91.4856 297° West 415 478 23,500 -1,080 Descending Minneapolis Center
09:48PM 44.8172 -91.6289 296° West 413 475 21,900 -2,040 Descending Minneapolis Center
09:49PM 44.8667 -91.7661 297° West 402 463 19,400 -2,820 Descending Minneapolis Center
09:50PM 44.9247 -91.9286 297° West 391 450 16,200 -2,760 Descending Minneapolis Center
09:51PM 44.9700 -92.0600 296° West 377 434 13,800 -2,340 Descending Minneapolis Center
09:52PM 45.0142 -92.1883 296° West 366 421 11,400 -1,320 Descending Minneapolis Center
09:53PM 45.0461 -92.3203 289° West 367 422 11,100 -240 Descending Minneapolis Center
09:54PM 45.0228 -92.4578 257° West 362 417 11,000 -60 Descending Minneapolis Center
09:55PM 45.0006 -92.5961 257° West 361 415 11,000  Level Minneapolis Center
09:56PM 44.9789 -92.7336 257° West 362 417 11,000 -300 Level Minneapolis Center
09:57PM 44.9525 -92.8989 257° West 360 414 10,500 -660 Descending Minneapolis Center
09:58PM 44.9322 -93.0175 256° West 313 360 9,700 -1,200 Descending Minneapolis Center
09:59PM 44.9458 -93.1228 280° West 296 341 8,100 -1,560 Descending Minneapolis Center
10:00PM 44.9894 -93.2161 303° West 289 333 6,500 -1,380 Descending Minneapolis Center
10:02PM 45.0475 -93.2781 323° Northwest 257 296 5,300 -1,200 Descending Minneapolis Center
10:03PM 45.0964 -93.3436 317° Northwest 198 228 4,100 -660 Descending Minneapolis Center
10:04PM 45.1094 -93.4075 286° West 191 220 4,000 -60 Descending Minneapolis Center
10:05PM 45.0606 -93.4272 196° South 188 216 4,000 -300 Level Minneapolis Center
10:06PM 45.0125 -93.4214 175° South 183 211 3,500 -540 Descending Minneapolis Center